createdAt,value
2019-01-29T00:00:37.793Z,3.40
2019-01-29T00:03:41.084Z,3.30
2019-01-29T00:06:44.518Z,3.40
2019-01-29T00:09:47.477Z,3.40
2019-01-29T00:12:50.473Z,3.30
2019-01-29T00:15:53.763Z,3.30
2019-01-29T00:18:56.671Z,3.30
2019-01-29T00:22:00.898Z,3.30
2019-01-29T00:25:05.710Z,3.30
2019-01-29T00:28:08.837Z,3.30
2019-01-29T00:31:11.815Z,3.30
2019-01-29T00:34:15.068Z,3.30
2019-01-29T00:37:18.023Z,3.30
2019-01-29T00:40:21.254Z,3.40
2019-01-29T00:43:24.180Z,3.40
2019-01-29T00:46:28.126Z,3.40
2019-01-29T00:49:31.420Z,3.50
2019-01-29T00:52:41.891Z,3.60
2019-01-29T00:55:39.778Z,3.50
2019-01-29T00:58:43.074Z,3.50
2019-01-29T01:01:46.283Z,3.50
2019-01-29T01:04:49.579Z,3.50
2019-01-29T01:07:53.508Z,3.50
2019-01-29T01:10:57.072Z,3.50
2019-01-29T01:14:00.283Z,3.50
2019-01-29T01:17:03.337Z,3.40
2019-01-29T01:20:10.302Z,3.30
2019-01-29T01:23:13.198Z,3.40
2019-01-29T01:26:16.439Z,3.40
2019-01-29T01:29:19.669Z,3.40
2019-01-29T01:32:22.592Z,3.40
2019-01-29T01:35:25.520Z,3.40
2019-01-29T01:38:28.420Z,3.40
2019-01-29T01:41:31.688Z,3.40
2019-01-29T01:44:34.595Z,3.40
2019-01-29T01:47:39.320Z,3.30
2019-01-29T01:50:42.266Z,3.40
2019-01-29T01:53:45.463Z,3.40
2019-01-29T01:56:48.684Z,3.40
2019-01-29T01:59:51.863Z,3.30
2019-01-29T02:02:55.522Z,3.50
2019-01-29T02:05:59.085Z,3.40
2019-01-29T02:09:08.273Z,3.30
2019-01-29T02:12:11.520Z,3.40
2019-01-29T02:15:14.520Z,3.40
2019-01-29T02:18:17.548Z,3.40
2019-01-29T02:21:21.256Z,3.40
2019-01-29T02:24:24.558Z,3.50
2019-01-29T02:27:27.492Z,3.50
2019-01-29T02:30:30.764Z,3.40
2019-01-29T02:33:33.750Z,3.40
2019-01-29T02:36:36.938Z,3.40
2019-01-29T02:39:39.856Z,3.30
2019-01-29T02:42:43.154Z,3.30
2019-01-29T02:45:46.417Z,3.50
2019-01-29T02:48:49.628Z,3.50
2019-01-29T02:51:52.893Z,3.40
2019-01-29T02:54:56.469Z,3.40
2019-01-29T02:58:00.380Z,3.50
2019-01-29T03:01:03.396Z,3.50
2019-01-29T03:04:06.640Z,3.40
2019-01-29T03:07:10.553Z,3.30
2019-01-29T03:10:17.690Z,3.20
2019-01-29T03:13:20.601Z,3.30
2019-01-29T03:16:23.530Z,3.30
2019-01-29T03:19:27.071Z,3.20
2019-01-29T03:22:30.346Z,3.20
2019-01-29T03:25:33.700Z,3.30
2019-01-29T03:28:36.615Z,3.30
2019-01-29T03:31:39.558Z,3.20
2019-01-29T03:34:42.827Z,3.30
2019-01-29T03:37:45.727Z,3.20
2019-01-29T03:40:48.973Z,3.20
2019-01-29T03:43:51.908Z,3.20
2019-01-29T03:46:54.820Z,3.10
2019-01-29T03:49:58.424Z,3.20
2019-01-29T03:53:01.623Z,3.20
2019-01-29T03:56:05.153Z,3.10
2019-01-29T03:59:08.496Z,3.10
2019-01-29T04:02:12.082Z,3.10
2019-01-29T04:05:15.714Z,2.90
2019-01-29T04:08:19.598Z,3.10
2019-01-29T04:11:22.815Z,3.00
2019-01-29T04:14:25.835Z,2.90
2019-01-29T04:17:28.739Z,2.90
2019-01-29T04:20:31.667Z,3.00
2019-01-29T04:23:34.940Z,3.00
2019-01-29T04:26:38.573Z,3.00
2019-01-29T04:29:41.490Z,3.00
2019-01-29T04:32:44.437Z,3.10
2019-01-29T04:35:47.460Z,3.20
2019-01-29T04:38:50.746Z,3.20
2019-01-29T04:41:53.662Z,3.10
2019-01-29T04:44:57.409Z,3.20
2019-01-29T04:48:00.330Z,3.20
2019-01-29T04:51:03.478Z,3.20
2019-01-29T04:54:06.692Z,3.10
2019-01-29T04:57:09.678Z,3.10
2019-01-29T05:00:24.917Z,3.00
2019-01-29T05:03:29.419Z,3.20
2019-01-29T05:06:32.324Z,3.10
2019-01-29T05:09:36.491Z,3.00
2019-01-29T05:12:39.706Z,3.00
2019-01-29T05:15:43.280Z,3.10
2019-01-29T05:18:46.895Z,3.10
2019-01-29T05:21:49.853Z,3.10
2019-01-29T05:24:53.176Z,3.00
2019-01-29T05:27:56.460Z,3.00
2019-01-29T05:30:59.630Z,3.10
2019-01-29T05:34:03.963Z,3.00
2019-01-29T05:37:06.931Z,3.00
2019-01-29T05:40:13.701Z,3.00
2019-01-29T05:43:16.598Z,3.10
2019-01-29T05:46:19.528Z,3.00
2019-01-29T05:49:22.452Z,3.10
2019-01-29T05:52:25.684Z,3.00
2019-01-29T05:55:28.599Z,3.10
2019-01-29T05:58:32.038Z,3.20
2019-01-29T06:01:34.954Z,3.20
2019-01-29T06:04:39.274Z,3.20
2019-01-29T06:07:42.174Z,3.20
2019-01-29T06:10:45.100Z,3.10
2019-01-29T06:13:48.020Z,3.00
2019-01-29T06:16:51.336Z,3.10
2019-01-29T06:19:54.289Z,3.00
2019-01-29T06:22:57.514Z,3.10
2019-01-29T06:26:00.846Z,3.00
2019-01-29T06:29:04.084Z,3.00
2019-01-29T06:32:07.006Z,3.00
2019-01-29T06:35:12.266Z,3.00
2019-01-29T06:38:15.590Z,3.10
2019-01-29T06:41:18.820Z,3.10
2019-01-29T06:44:21.718Z,3.10
2019-01-29T06:47:24.646Z,3.00
2019-01-29T06:50:27.807Z,2.90
2019-01-29T06:53:31.513Z,2.90
2019-01-29T06:56:34.439Z,3.00
2019-01-29T06:59:37.704Z,3.20
2019-01-29T07:02:40.726Z,3.30
2019-01-29T07:05:43.652Z,3.40
2019-01-29T07:08:46.671Z,3.40
2019-01-29T07:12:01.364Z,3.50
2019-01-29T07:15:05.892Z,3.40
2019-01-29T07:18:19.158Z,3.30
2019-01-29T07:21:22.355Z,3.40
2019-01-29T07:24:25.279Z,3.40
2019-01-29T07:27:28.860Z,5.20
2019-01-29T07:30:31.763Z,4.80
2019-01-29T07:33:34.683Z,4.30
2019-01-29T07:36:38.062Z,4.00
2019-01-29T07:39:41.338Z,3.90
2019-01-29T07:42:44.511Z,3.80
2019-01-29T07:45:47.415Z,3.80
2019-01-29T07:48:50.954Z,3.80
2019-01-29T07:51:54.201Z,3.80
2019-01-29T07:54:57.728Z,3.70
2019-01-29T07:58:00.693Z,3.60
2019-01-29T08:01:03.820Z,3.50
2019-01-29T08:04:06.843Z,3.70
2019-01-29T08:07:10.770Z,3.60
2019-01-29T08:10:14.290Z,3.70
2019-01-29T08:13:17.318Z,3.80
2019-01-29T08:16:20.569Z,3.80
2019-01-29T08:19:23.485Z,4.60
2019-01-29T08:22:26.422Z,5.10
2019-01-29T08:25:29.733Z,4.60
2019-01-29T08:28:32.639Z,4.30
2019-01-29T08:31:35.890Z,4.10
2019-01-29T08:34:38.835Z,4.00
2019-01-29T08:37:41.768Z,4.00
2019-01-29T08:40:45.101Z,3.90
2019-01-29T08:43:48.698Z,3.90
2019-01-29T08:46:52.417Z,3.80
2019-01-29T08:49:55.591Z,3.80
2019-01-29T08:52:58.520Z,3.90
2019-01-29T08:56:01.440Z,3.80
2019-01-29T08:59:04.450Z,4.00
2019-01-29T09:02:08.242Z,4.00
2019-01-29T09:05:12.052Z,3.90
2019-01-29T09:08:15.307Z,4.00
2019-01-29T09:11:18.246Z,4.10
2019-01-29T09:14:21.896Z,4.00
2019-01-29T09:17:25.131Z,3.90
2019-01-29T09:20:28.334Z,4.00
2019-01-29T09:23:31.264Z,4.10
2019-01-29T09:26:34.835Z,4.10
2019-01-29T09:29:38.066Z,5.10
2019-01-29T09:32:40.992Z,5.10
2019-01-29T09:35:44.277Z,4.70
2019-01-29T09:38:47.535Z,4.50
2019-01-29T09:41:50.875Z,4.40
2019-01-29T09:44:53.807Z,4.30
2019-01-29T09:47:56.739Z,4.10
2019-01-29T09:50:59.999Z,4.20
2019-01-29T09:54:05.060Z,4.20
2019-01-29T09:57:09.046Z,4.20
2019-01-29T10:00:30.401Z,4.20
2019-01-29T10:03:33.991Z,4.10
2019-01-29T10:06:37.524Z,4.10
2019-01-29T10:09:41.943Z,4.10
2019-01-29T10:12:44.863Z,4.10
2019-01-29T10:15:47.794Z,4.20
2019-01-29T10:18:51.324Z,4.20
2019-01-29T10:21:54.254Z,4.20
2019-01-29T10:24:57.527Z,4.30
2019-01-29T10:28:00.491Z,4.20
2019-01-29T10:31:04.673Z,4.30
2019-01-29T10:34:07.568Z,4.40
2019-01-29T10:37:10.493Z,4.50
2019-01-29T10:40:17.059Z,4.50
2019-01-29T10:43:20.659Z,4.50
2019-01-29T10:46:24.687Z,4.30
2019-01-29T10:49:27.873Z,4.30
2019-01-29T10:52:31.899Z,4.40
2019-01-29T10:55:35.145Z,4.40
2019-01-29T10:58:38.071Z,4.40
2019-01-29T11:01:41.291Z,4.50
2019-01-29T11:04:44.193Z,4.50
2019-01-29T11:07:47.130Z,4.70
2019-01-29T11:10:50.048Z,4.70
2019-01-29T11:13:54.031Z,4.70
2019-01-29T11:16:57.634Z,4.60
2019-01-29T11:20:00.830Z,4.40
2019-01-29T11:23:05.524Z,4.40
2019-01-29T11:26:08.523Z,4.50
2019-01-29T11:29:12.555Z,4.70
2019-01-29T11:32:15.474Z,4.70
2019-01-29T11:35:18.367Z,4.70
2019-01-29T11:38:21.758Z,4.70
2019-01-29T11:41:25.526Z,4.70
2019-01-29T11:44:28.452Z,4.70
2019-01-29T11:47:31.379Z,4.60
2019-01-29T11:50:34.698Z,4.70
2019-01-29T11:53:37.640Z,4.70
2019-01-29T11:56:40.563Z,4.70
2019-01-29T11:59:43.797Z,4.70
2019-01-29T12:02:47.153Z,4.70
2019-01-29T12:05:50.107Z,4.70
2019-01-29T12:08:53.351Z,4.60
2019-01-29T12:11:56.433Z,4.50
2019-01-29T12:14:59.327Z,4.40
2019-01-29T12:18:03.347Z,4.20
2019-01-29T12:21:06.547Z,4.20
2019-01-29T12:24:11.260Z,4.20
2019-01-29T12:27:14.303Z,4.30
2019-01-29T12:30:19.271Z,4.20
2019-01-29T12:33:22.485Z,4.30
2019-01-29T12:36:25.720Z,4.30
2019-01-29T12:39:28.644Z,4.30
2019-01-29T12:42:31.568Z,4.20
2019-01-29T12:45:35.248Z,4.30
2019-01-29T12:48:38.543Z,4.40
2019-01-29T12:51:54.699Z,4.40
2019-01-29T12:54:58.075Z,4.50
2019-01-29T12:58:01.236Z,4.60
2019-01-29T13:01:05.274Z,4.70
2019-01-29T13:04:08.303Z,4.80
2019-01-29T13:07:11.563Z,4.80
2019-01-29T13:10:18.067Z,4.70
2019-01-29T13:13:21.592Z,4.80
2019-01-29T13:16:24.803Z,4.90
2019-01-29T13:19:28.016Z,4.90
2019-01-29T13:22:30.922Z,4.90
2019-01-29T13:25:33.842Z,4.90
2019-01-29T13:28:36.759Z,4.90
2019-01-29T13:31:39.948Z,4.90
2019-01-29T13:34:42.858Z,4.90
2019-01-29T13:37:46.131Z,4.90
2019-01-29T13:40:49.522Z,5.00
2019-01-29T13:43:52.727Z,5.00
2019-01-29T13:46:56.008Z,5.00
2019-01-29T13:49:59.311Z,4.90
2019-01-29T13:53:02.851Z,4.90
2019-01-29T13:56:06.084Z,4.80
2019-01-29T13:59:09.291Z,4.80
2019-01-29T14:02:12.230Z,5.00
2019-01-29T14:05:15.120Z,4.90
2019-01-29T14:08:18.039Z,4.90
2019-01-29T14:11:20.976Z,5.00
2019-01-29T14:14:26.107Z,5.00
2019-01-29T14:17:29.377Z,5.00
2019-01-29T14:20:32.671Z,5.10
2019-01-29T14:23:36.284Z,5.10
2019-01-29T14:26:47.347Z,5.10
2019-01-29T14:29:44.606Z,5.00
2019-01-29T14:32:48.165Z,5.00
2019-01-29T14:35:51.622Z,4.90
2019-01-29T14:39:58.623Z,4.80
2019-01-29T14:43:02.336Z,4.80
2019-01-29T14:46:05.362Z,4.80
2019-01-29T14:49:08.618Z,4.90
2019-01-29T14:52:12.627Z,4.80
2019-01-29T14:55:16.067Z,4.70
2019-01-29T14:58:19.443Z,4.70
2019-01-29T15:01:22.803Z,4.80
2019-01-29T15:04:26.042Z,4.70
2019-01-29T15:07:30.502Z,4.70
2019-01-29T15:10:34.014Z,4.70
2019-01-29T15:13:37.651Z,4.70
2019-01-29T15:16:56.826Z,4.60
2019-01-29T15:20:00.217Z,4.60
2019-01-29T15:23:03.696Z,4.70
2019-01-29T15:26:07.255Z,4.60
2019-01-29T15:29:10.163Z,4.70
2019-01-29T15:32:13.082Z,4.60
2019-01-29T15:35:16.103Z,4.60
2019-01-29T15:38:19.002Z,4.60
2019-01-29T15:41:21.934Z,4.50
2019-01-29T15:44:24.828Z,4.50
2019-01-29T15:47:28.456Z,4.50
2019-01-29T15:50:31.715Z,4.50
2019-01-29T15:53:35.042Z,4.50
2019-01-29T15:56:38.619Z,4.50
2019-01-29T15:59:42.937Z,4.40
2019-01-29T16:02:46.332Z,4.40
2019-01-29T16:05:49.259Z,4.70
2019-01-29T16:08:52.520Z,4.90
2019-01-29T16:11:55.768Z,4.60
2019-01-29T16:14:58.664Z,4.50
2019-01-29T16:18:02.504Z,4.40
2019-01-29T16:21:05.967Z,4.30
2019-01-29T16:24:09.971Z,4.20
2019-01-29T16:27:12.907Z,4.20
2019-01-29T16:30:19.945Z,4.00
2019-01-29T16:33:22.867Z,4.00
2019-01-29T16:36:26.172Z,3.90
2019-01-29T16:39:29.095Z,4.00
2019-01-29T16:42:32.015Z,4.10
2019-01-29T16:45:36.238Z,4.00
2019-01-29T16:48:39.201Z,4.10
2019-01-29T16:51:42.721Z,4.00
2019-01-29T16:54:46.135Z,4.00
2019-01-29T16:57:49.528Z,3.80
2019-01-29T17:00:52.491Z,3.90
2019-01-29T17:03:55.420Z,3.90
2019-01-29T17:06:58.357Z,3.90
2019-01-29T17:10:01.313Z,3.80
2019-01-29T17:13:04.823Z,3.90
2019-01-29T17:16:07.868Z,3.90
2019-01-29T17:19:11.389Z,3.80
2019-01-29T17:22:14.300Z,3.70
2019-01-29T17:25:17.511Z,3.70
2019-01-29T17:28:20.498Z,3.70
2019-01-29T17:31:23.460Z,3.70
2019-01-29T17:34:26.439Z,3.60
2019-01-29T17:37:29.644Z,3.40
2019-01-29T17:40:33.773Z,3.50
2019-01-29T17:43:36.814Z,3.50
2019-01-29T17:46:39.734Z,3.50
2019-01-29T17:49:42.674Z,3.50
2019-01-29T17:52:45.916Z,3.40
2019-01-29T17:55:48.888Z,3.20
2019-01-29T17:58:51.796Z,3.40
2019-01-29T18:01:55.185Z,3.30
2019-01-29T18:04:59.258Z,3.40
2019-01-29T18:08:02.362Z,3.40
2019-01-29T18:11:05.287Z,3.30
2019-01-29T18:14:08.526Z,3.20
2019-01-29T18:17:11.803Z,3.20
2019-01-29T18:20:15.854Z,3.20
2019-01-29T18:23:18.766Z,3.10
2019-01-29T18:26:21.967Z,3.20
2019-01-29T18:29:25.239Z,3.20
2019-01-29T18:32:28.597Z,3.00
2019-01-29T18:35:31.978Z,3.00
2019-01-29T18:38:36.282Z,3.10
2019-01-29T18:41:40.324Z,3.00
2019-01-29T18:44:43.298Z,3.20
2019-01-29T18:47:46.239Z,3.20
2019-01-29T18:50:49.576Z,3.20
2019-01-29T18:53:52.774Z,3.20
2019-01-29T18:56:55.723Z,3.20
2019-01-29T18:59:58.657Z,3.20
2019-01-29T19:03:01.666Z,3.20
2019-01-29T19:06:05.202Z,3.20
2019-01-29T19:09:08.607Z,3.70
2019-01-29T19:12:12.445Z,3.50
2019-01-29T19:15:18.242Z,3.30
2019-01-29T19:18:21.279Z,3.00
2019-01-29T19:21:25.082Z,3.00
2019-01-29T19:24:28.353Z,3.00
2019-01-29T19:27:31.383Z,3.00
2019-01-29T19:30:34.387Z,3.00
2019-01-29T19:33:37.652Z,3.00
2019-01-29T19:36:40.635Z,2.90
2019-01-29T19:39:44.353Z,3.10
2019-01-29T19:42:47.609Z,3.10
2019-01-29T19:45:50.862Z,2.80
2019-01-29T19:48:54.116Z,3.20
2019-01-29T19:51:57.765Z,3.10
2019-01-29T19:55:00.688Z,3.10
2019-01-29T19:58:09.086Z,3.10
2019-01-29T20:01:10.562Z,3.00
2019-01-29T20:04:13.755Z,3.00
2019-01-29T20:07:17.019Z,3.00
2019-01-29T20:10:20.755Z,2.90
2019-01-29T20:13:24.332Z,2.90
2019-01-29T20:16:27.379Z,2.80
2019-01-29T20:19:31.543Z,2.90
2019-01-29T20:22:35.238Z,2.70
2019-01-29T20:25:38.650Z,2.80
2019-01-29T20:28:42.787Z,2.90
2019-01-29T20:31:46.497Z,2.90
2019-01-29T20:34:49.813Z,3.00
2019-01-29T20:37:53.870Z,3.00
2019-01-29T20:40:57.388Z,2.90
2019-01-29T20:44:00.726Z,2.90
2019-01-29T20:47:03.675Z,2.90
2019-01-29T20:50:11.842Z,2.90
2019-01-29T20:53:15.194Z,2.80
2019-01-29T20:56:18.598Z,2.80
2019-01-29T20:59:21.782Z,2.80
2019-01-29T21:02:24.773Z,2.80
2019-01-29T21:05:28.132Z,2.80
2019-01-29T21:08:31.457Z,2.80
2019-01-29T21:11:35.107Z,2.80
2019-01-29T21:14:38.052Z,2.90
2019-01-29T21:17:40.974Z,2.90
2019-01-29T21:20:44.286Z,2.80
2019-01-29T21:23:49.101Z,2.80
2019-01-29T21:26:53.899Z,2.70
2019-01-29T21:29:57.731Z,3.00
2019-01-29T21:33:00.993Z,3.40
2019-01-29T21:36:04.521Z,3.10
2019-01-29T21:39:08.842Z,3.00
2019-01-29T21:42:12.735Z,3.00
2019-01-29T21:45:16.163Z,3.00
2019-01-29T21:48:19.397Z,2.90
2019-01-29T21:51:22.583Z,2.90
2019-01-29T21:54:25.548Z,2.90
2019-01-29T21:57:28.452Z,2.60
2019-01-29T22:00:37.419Z,2.60
2019-01-29T22:03:40.357Z,2.60
2019-01-29T22:06:43.290Z,2.70
2019-01-29T22:09:46.297Z,2.50
2019-01-29T22:12:50.633Z,2.70
2019-01-29T22:15:53.561Z,2.80
2019-01-29T22:18:56.472Z,2.80
2019-01-29T22:22:00.144Z,2.70
2019-01-29T22:25:04.429Z,2.70
2019-01-29T22:28:10.019Z,2.90
2019-01-29T22:31:13.246Z,2.70
2019-01-29T22:34:17.161Z,2.70
2019-01-29T22:37:20.080Z,2.70
2019-01-29T22:40:24.448Z,2.70
2019-01-29T22:43:27.372Z,2.70
2019-01-29T22:46:30.547Z,2.70
2019-01-29T22:49:33.473Z,2.70
2019-01-29T22:52:36.685Z,2.80
2019-01-29T22:55:39.628Z,2.80
2019-01-29T22:58:42.840Z,2.80
2019-01-29T23:01:45.868Z,2.70
2019-01-29T23:04:49.354Z,2.70
2019-01-29T23:07:52.607Z,2.80
2019-01-29T23:10:57.456Z,2.70
2019-01-29T23:14:00.481Z,2.70
2019-01-29T23:17:04.994Z,2.70
2019-01-29T23:20:09.546Z,2.80
2019-01-29T23:23:12.883Z,2.70
2019-01-29T23:26:16.183Z,2.70
2019-01-29T23:29:19.743Z,2.60
2019-01-29T23:32:22.759Z,2.60
2019-01-29T23:35:25.718Z,2.70
2019-01-29T23:38:29.019Z,2.70
2019-01-29T23:41:32.249Z,2.70
2019-01-29T23:44:36.819Z,2.70
2019-01-29T23:47:40.254Z,2.70
2019-01-29T23:50:43.895Z,2.60
2019-01-29T23:53:46.815Z,2.50
2019-01-29T23:56:49.763Z,2.50
2019-01-29T23:59:53.662Z,2.60
